Date,TemperatureHighF,TemperatureAvgF,TemperatureLowF,DewpointHighF,DewpointAvgF,DewpointLowF,HumidityHigh,HumidityAvg,HumidityLow,PressureMaxIn,PressureMinIn,WindSpeedMaxMPH,WindSpeedAvgMPH,GustSpeedMaxMPH,PrecipitationSumIn
2013-1-1,16.7,11.3,2.7,3.0,-3.9,-6.7,86,51,37,30.46,30.32,21,-23,25,0.00
2013-1-2,18.1,10.4,3.2,-0.4,-3.3,-9.0,65,54,40,30.60,30.43,21,-28,22,0.00
2013-1-3,33.3,12.4,-5.6,0.3,-8.6,-17.3,69,44,13,30.71,30.59,11,-29,12,0.00
2013-1-4,41.4,21.8,11.1,11.7,5.4,-2.4,70,51,25,30.59,30.25,9,-32,9,0.00
2013-1-5,29.8,24.8,10.6,0.9,-4.7,-18.2,57,28,14,30.46,30.25,24,1,28,0.00
2013-1-6,47.1,30.1,12.6,3.6,-11.4,-33.3,36,18,4,30.44,30.04,22,-6,27,0.00
2013-1-7,43.2,34.6,29.1,0.0,-9.4,-25.4,26,15,5,30.04,29.76,34,4,36,0.00
2013-1-8,32.7,27.2,21.9,15.1,11.2,-11.2,64,51,16,30.37,29.74,28,-9,39,0.00
2013-1-9,51.6,35.3,24.3,12.7,8.1,-1.1,57,34,14,30.42,30.03,18,-7,18,0.00
2013-1-10,43.2,30.8,21.0,14.5,3.6,-4.9,49,33,14,30.03,29.48,24,1,24,0.00
2013-1-11,33.1,16.2,4.1,17.1,-0.5,-11.9,82,48,24,29.87,29.25,41,-12,51,0.01
2013-1-12,10.6,0.5,-12.8,-4.0,-12.6,-18.0,83,56,29,30.35,29.88,29,-21,29,0.00
2013-1-13,3.6,-4.3,-11.4,-3.1,-9.3,-16.6,92,79,69,30.58,30.35,8,-20,8,0.00
2013-1-14,10.0,-4.0,-13.2,-4.7,-13.6,-18.6,91,65,36,30.63,30.51,18,-51,24,0.00
2013-1-15,25.9,15.7,1.2,10.2,-1.3,-18.0,54,46,38,30.56,30.40,21,-25,31,0.00
2013-1-16,41.0,26.9,16.3,16.0,12.8,7.3,75,56,35,30.44,30.30,18,-14,29,0.00
2013-1-17,44.6,26.5,12.4,14.2,7.0,-3.8,77,48,19,30.62,30.35,16,-7,18,0.00
2013-1-18,39.9,33.7,28.0,3.9,-0.7,-5.8,34,23,15,30.36,30.06,35,-7,35,0.00
2013-1-19,41.7,32.5,27.1,3.2,-0.4,-7.6,34,25,12,30.30,30.06,27,-1,31,0.00
2013-1-20,35.4,30.2,26.1,7.3,0.8,-3.1,34,28,21,30.30,30.12,33,-5,33,0.00
2013-1-21,37.0,30.5,24.4,9.3,2.0,-9.9,40,30,14,30.25,30.13,36,-4,40,0.00
2013-1-22,43.2,38.7,32.7,-8.0,-17.4,-41.4,16,9,2,30.19,30.04,46,-2,46,0.00
2013-1-23,49.5,41.5,29.8,7.7,-11.8,-51.9,35,11,1,30.19,30.06,43,8,45,0.00
2013-1-24,44.4,35.2,24.4,26.1,12.0,-3.5,74,42,19,30.13,29.91,32,-9,42,0.00
2013-1-25,42.4,36.0,31.6,25.7,23.4,19.8,72,60,49,30.15,30.01,35,-3,45,0.00
2013-1-26,45.0,35.4,28.2,27.5,23.0,19.4,93,62,38,30.01,29.68,26,-9,28,0.00
2013-1-27,39.6,34.0,28.2,28.0,24.8,18.9,93,71,44,29.72,29.64,36,-6,43,0.01
2013-1-28,34.9,23.8,15.1,22.1,17.3,12.4,92,77,51,29.68,29.56,29,-19,29,0.00
2013-1-29,16.3,9.8,3.7,12.7,-1.2,-7.8,90,62,41,30.21,29.66,26,-10,26,0.00
2013-1-30,21.6,13.9,4.5,13.5,5.4,-7.4,82,69,49,30.22,30.08,35,-16,41,0.01
2013-1-31,27.3,23.7,19.6,15.1,12.3,9.1,79,62,48,30.29,30.07,39,-7,52,0.00
2013-2-1,29.1,25.2,22.8,18.0,13.0,8.8,75,60,49,30.27,30.13,42,-22,47,0.00
2013-2-2,35.8,27.7,19.2,12.6,7.9,2.3,61,44,28,30.43,30.23,40,-4,40,0.00
2013-2-3,39.0,29.4,16.2,8.1,-0.7,-16.4,55,30,9,30.35,30.00,21,-28,27,0.00
2013-2-4,36.3,28.5,23.7,11.7,5.2,-1.7,48,37,21,30.08,29.89,37,-8,38,0.00
2013-2-5,41.2,33.4,27.3,20.1,16.0,10.2,56,49,42,30.13,29.89,38,4,46,0.00
2013-2-6,37.8,31.8,21.7,23.7,18.0,13.3,89,58,45,30.05,29.80,18,-8,19,0.00
2013-2-7,36.7,24.1,8.4,13.3,-1.6,-17.5,74,38,10,30.27,30.05,18,-15,19,0.00
2013-2-8,39.4,25.9,11.8,16.5,0.4,-11.7,59,35,15,30.19,29.81,22,-14,23,0.00
2013-2-9,28.8,21.8,13.8,18.7,13.3,5.9,91,70,56,29.81,29.54,26,-24,26,0.00
2013-2-10,17.8,13.4,4.1,11.8,6.7,0.1,88,75,50,30.24,29.62,23,-23,23,0.00
2013-2-11,18.0,7.4,-2.4,12.6,3.4,-6.3,88,84,79,30.40,30.23,7,-38,8,0.00
2013-2-12,29.5,16.6,1.9,4.8,-1.1,-13.7,83,47,24,30.40,30.27,19,-27,23,0.05
2013-2-13,26.2,22.0,16.3,13.3,7.7,3.6,61,54,42,30.29,30.10,34,-12,39,0.00
2013-2-14,25.2,14.8,8.6,14.9,8.6,5.4,87,77,51,30.40,30.09,31,-19,36,0.00
2013-2-15,24.4,17.3,4.8,10.6,7.3,1.2,89,66,42,30.57,30.40,28,-20,36,0.02
2013-2-16,34.9,28.0,20.5,12.9,8.7,4.8,63,45,32,30.48,30.05,40,-5,40,0.00
2013-2-17,39.9,30.5,18.5,11.8,1.9,-8.5,62,32,15,30.09,29.62,42,-6,45,0.00
2013-2-18,21.6,16.3,7.5,7.3,0.7,-6.2,69,50,35,30.27,29.70,25,-5,33,0.00
2013-2-19,36.9,23.8,5.5,8.2,-9.6,-37.7,65,29,4,30.27,29.86,23,-8,34,0.00
2013-2-20,32.4,22.4,13.6,14.0,9.3,3.4,88,61,30,29.86,29.65,9,-31,9,0.00
2013-2-21,19.8,13.2,5.9,14.2,9.6,2.3,91,85,74,30.09,29.70,7,-17,10,0.02
2013-2-22,23.7,15.8,9.3,13.8,3.7,-4.4,84,59,41,30.14,30.00,34,-20,45,0.03
2013-2-23,35.4,21.9,12.7,15.6,8.2,-2.9,84,56,38,30.00,29.78,38,-11,40,0.02
2013-2-24,16.2,12.9,1.9,13.8,9.9,-1.8,96,87,83,30.32,29.79,14,-12,16,0.00
2013-2-25,29.8,17.9,-1.7,15.3,5.1,-5.3,87,60,36,30.37,30.01,21,-7,21,0.01
2013-2-26,22.5,16.9,6.3,15.6,10.5,2.3,88,76,53,30.31,29.89,18,-24,18,0.01
2013-2-27,22.5,12.4,0.3,5.0,-1.2,-10.8,86,57,31,30.54,30.31,23,-20,29,0.00
2013-2-28,26.1,18.8,12.6,11.3,3.4,-3.5,72,51,39,30.54,30.40,27,-6,37,0.00
2013-3-1,33.6,26.2,18.7,19.0,13.8,8.2,71,59,45,30.50,30.43,30,-14,34,0.01
2013-3-2,41.5,34.4,28.9,21.2,18.5,14.4,66,52,39,30.45,30.09,25,-18,30,0.04
2013-3-3,41.4,35.4,27.9,25.2,18.7,13.8,79,52,37,30.09,29.57,48,9,57,0.01
2013-3-4,32.7,21.6,11.8,24.3,13.2,-2.7,91,71,45,30.29,29.63,29,-5,32,0.00
2013-3-5,41.2,24.4,11.5,3.4,-4.6,-15.7,69,32,9,30.50,30.28,21,-12,29,0.06
2013-3-6,48.7,36.2,18.5,17.2,7.1,-7.1,53,31,15,30.31,29.83,24,-17,24,0.00
2013-3-7,47.3,38.3,27.9,20.5,11.6,5.2,60,34,20,29.92,29.77,33,-6,36,0.00
2013-3-8,44.4,32.1,22.3,25.2,16.9,6.6,92,57,30,29.91,29.65,9,-17,10,0.00
2013-3-9,25.3,20.6,5.4,23.4,17.8,1.6,93,89,82,30.22,29.60,15,-16,18,0.00
2013-3-10,35.4,22.7,4.8,17.6,9.7,1.2,86,59,35,30.34,30.21,25,-37,31,0.18
2013-3-11,34.2,26.9,19.9,21.0,13.6,8.8,90,57,49,30.22,29.99,38,-22,45,0.01
2013-3-12,36.7,30.2,15.3,24.4,19.2,12.9,91,65,50,30.35,30.15,30,-9,32,0.19
2013-3-13,45.1,38.0,31.3,22.8,19.1,12.7,61,47,27,30.34,30.21,35,2,44,0.02
2013-3-14,51.4,42.8,34.2,21.4,16.5,9.9,59,35,22,30.25,30.07,29,-12,34,0.00
2013-3-15,54.0,44.6,29.7,25.2,20.2,17.2,68,39,25,30.09,29.78,33,-6,37,0.00
2013-3-16,43.2,34.2,28.2,32.2,25.3,20.7,88,70,43,29.83,29.70,21,-8,26,0.02
2013-3-17,35.2,29.1,18.7,24.4,16.9,3.4,82,61,35,29.83,29.52,38,-22,47,0.00
2013-3-18,27.0,21.6,14.7,14.4,7.4,-0.6,71,54,38,30.14,29.82,46,-9,49,0.00
2013-3-19,33.1,25.5,14.5,9.1,-4.9,-19.5,65,30,11,30.40,30.10,44,-6,48,0.00
2013-3-20,44.2,28.1,10.9,22.3,8.9,-6.7,63,45,24,30.38,29.81,40,-11,41,0.00
2013-3-21,39.0,29.9,20.7,25.7,16.9,4.3,86,59,41,29.83,29.47,33,-4,41,0.02
2013-3-22,29.7,20.0,12.2,17.8,10.4,0.9,90,69,29,30.02,29.77,27,-22,36,0.00
2013-3-23,13.5,7.9,0.1,10.8,4.1,-3.8,89,84,78,30.45,29.99,10,-28,13,0.00
2013-3-24,16.0,6.4,-4.2,3.7,-0.9,-8.5,86,72,51,30.55,30.42,15,-18,18,0.00
2013-3-25,25.7,13.7,5.2,12.2,1.3,-3.5,79,59,34,30.55,30.45,23,-14,23,0.11
2013-3-26,39.7,26.0,5.2,22.6,13.4,-0.8,82,60,35,30.45,30.11,34,2,37,0.03
2013-3-27,44.1,32.8,20.1,28.6,20.6,15.4,91,63,33,30.14,30.06,26,-14,29,0.09
2013-3-28,48.4,35.8,26.1,27.5,20.5,15.4,78,55,30,30.16,30.07,23,-11,27,0.00
2013-3-29,48.0,37.6,27.0,27.3,23.3,20.3,78,57,36,30.15,30.07,28,-2,30,0.00
2013-3-30,46.0,37.1,28.6,28.0,23.5,18.9,90,59,34,30.15,29.99,32,-3,42,0.00
2013-3-31,49.6,37.5,21.4,27.1,14.7,1.8,93,45,15,30.14,30.01,22,-2,30,0.00
2013-4-1,41.4,31.1,22.5,28.9,23.7,16.5,95,75,49,30.10,29.96,9,-13,11,0.00
2013-4-2,34.7,29.1,27.0,30.9,27.5,25.5,95,93,83,30.17,30.03,6,-7,8,0.10
2013-4-3,46.4,33.9,18.9,31.3,23.9,16.9,95,70,38,30.23,30.12,15,-5,20,0.37
2013-4-4,50.7,42.4,34.3,24.8,21.4,13.8,66,45,24,30.19,29.95,21,2,24,0.00
2013-4-5,53.1,41.9,33.1,31.1,21.7,16.9,88,47,27,29.95,29.55,36,-1,40,0.01
2013-4-6,45.7,36.9,30.0,28.0,21.3,11.7,76,54,33,29.91,29.71,28,-9,37,0.01
2013-4-7,43.2,36.5,30.9,29.1,22.7,17.1,90,58,40,29.86,29.68,37,-10,38,0.01
2013-4-8,46.0,35.6,22.3,29.3,23.1,14.2,93,63,38,29.72,29.41,15,-19,18,0.00
2013-4-9,21.9,8.9,-0.4,19.8,5.3,-3.8,92,85,78,30.36,29.61,9,-26,10,0.00
2013-4-10,24.1,12.0,-5.4,18.0,6.5,-9.8,88,79,51,30.46,30.17,25,-22,32,0.16
2013-4-11,37.9,29.6,20.7,27.3,19.7,9.7,82,66,53,30.19,29.92,27,-20,35,0.04
2013-4-12,40.6,31.6,24.1,27.1,21.7,12.0,90,68,32,29.97,29.86,26,-11,33,0.05
2013-4-13,46.6,37.4,23.5,30.6,17.1,8.2,93,46,27,29.94,29.41,46,-5,55,0.01
2013-4-14,32.2,22.5,16.7,30.2,13.0,0.5,93,69,38,29.87,29.41,31,-24,34,0.00
2013-4-15,24.8,19.7,15.4,22.3,16.2,10.2,92,86,57,30.11,29.83,11,-2,20,0.00
2013-4-16,24.1,18.5,13.8,21.0,16.2,11.3,100,91,87,30.14,29.99,8,-22,11,0.02
2013-4-17,21.7,14.1,2.7,19.0,11.5,-1.1,100,89,83,30.33,30.05,10,-7,10,0.00
2013-4-18,21.9,11.6,-4.0,8.6,2.3,-7.6,95,67,46,30.52,30.30,30,-31,33,0.00
2013-4-19,34.9,26.5,18.0,21.2,13.3,5.2,70,57,47,30.47,30.08,33,-6,36,0.05
2013-4-20,40.5,32.6,27.1,27.7,22.2,19.4,82,66,44,30.08,29.96,29,-17,29,0.08
2013-4-21,42.4,34.1,28.2,25.0,19.7,14.0,82,57,35,30.10,29.97,24,-3,29,0.00
2013-4-22,34.5,23.4,10.9,28.8,19.6,7.9,92,86,54,30.30,29.91,26,-27,39,0.10
2013-4-23,23.7,15.1,8.2,18.5,10.5,5.0,88,82,71,30.46,30.25,12,-13,13,0.02
2013-4-24,36.1,25.8,9.0,17.4,10.1,3.7,86,53,32,30.44,30.35,31,-23,31,0.01
2013-4-25,47.8,34.9,17.6,22.8,11.5,0.3,70,41,18,30.35,30.02,33,-3,39,0.05
2013-4-26,48.0,38.4,27.0,21.9,15.9,9.1,62,41,24,30.28,30.09,10,-12,11,0.00
2013-4-27,54.0,43.9,31.8,19.8,14.5,10.2,55,31,19,30.26,30.02,21,1,27,0.00
2013-4-28,57.7,48.9,39.0,29.3,20.0,13.3,54,32,21,30.02,29.78,22,2,27,0.00
2013-4-29,59.7,48.6,31.8,31.8,23.9,16.0,83,42,20,29.83,29.52,34,2,35,0.00
2013-4-30,51.3,40.8,28.9,35.2,28.6,19.0,94,65,30,29.83,29.48,22,-12,22,0.02
2013-5-1,28.9,24.2,21.0,27.5,22.2,18.7,100,92,89,30.23,29.83,9,-8,9,0.02
2013-5-2,29.8,26.9,23.4,23.9,19.5,14.9,83,74,59,30.96,30.66,14,-10,14,0.22
2013-5-3,43.9,35.2,26.6,27.0,19.6,9.3,83,54,28,30.66,30.15,15,-8,20,0.57
2013-5-4,41.4,33.2,25.0,29.3,23.9,15.6,84,70,44,30.27,30.09,12,-9,14,0.00
2013-5-5,44.6,33.9,24.3,33.3,26.5,19.9,94,76,52,30.26,30.11,8,-24,8,0.02
2013-5-6,49.6,39.8,30.9,37.2,31.6,28.0,94,74,53,30.14,29.91,9,-9,10,0.09
2013-5-7,53.4,42.1,33.3,35.2,30.1,20.3,92,65,30,29.94,29.86,19,-7,25,0.05
2013-5-8,39.9,34.9,31.5,36.1,32.0,28.8,95,89,80,30.11,29.88,12,-6,14,0.20
2013-5-9,40.6,34.9,31.3,36.0,32.6,28.0,97,92,72,30.26,30.14,9,-3,11,0.74
2013-5-10,46.6,37.6,29.1,35.6,30.6,25.7,92,76,55,30.39,30.24,11,-4,13,0.52
2013-5-11,51.4,40.3,30.0,38.5,31.8,25.5,91,73,41,30.42,30.24,22,-4,23,0.00
2013-5-12,61.0,50.4,34.7,33.6,29.0,25.5,81,45,28,30.27,30.04,23,-2,30,0.00
2013-5-13,67.5,57.4,43.9,37.4,30.7,24.6,63,37,22,30.04,29.84,19,4,20,0.00
2013-5-14,66.7,55.9,43.2,46.2,33.4,26.8,82,45,24,29.85,29.73,22,1,24,0.12
2013-5-15,62.2,51.4,39.9,41.7,34.6,28.6,83,54,34,29.80,29.72,23,-1,29,0.00
2013-5-16,62.8,52.0,42.1,36.7,32.8,27.7,81,49,27,29.78,29.68,23,-7,29,0.00
2013-5-17,67.1,54.3,36.7,35.6,22.4,0.5,84,36,8,29.78,29.66,28,2,29,0.00
2013-5-18,55.8,48.2,40.3,34.0,24.7,13.8,67,41,23,29.70,29.58,33,-2,36,0.00
2013-5-19,50.4,42.0,37.0,32.7,27.0,20.7,73,56,37,29.80,29.66,29,0,35,0.00
2013-5-20,48.7,41.5,34.5,33.8,28.8,23.7,88,61,45,29.96,29.75,20,1,26,0.00
2013-5-21,53.4,42.1,33.3,29.1,24.8,20.3,73,51,30,29.98,29.87,24,-2,28,0.00
2013-5-22,57.0,43.9,31.5,34.2,28.5,22.8,80,58,27,29.94,29.82,14,-2,15,0.00
2013-5-23,52.0,46.7,40.3,46.0,43.4,38.3,96,88,79,29.91,29.86,8,-29,9,0.24
2013-5-24,64.8,51.5,35.2,41.9,30.7,16.7,96,50,17,29.96,29.83,21,-7,27,0.00
2013-5-25,67.8,54.8,37.2,38.1,23.3,6.3,74,34,10,29.87,29.75,24,4,25,0.00
2013-5-26,68.0,56.2,44.2,34.7,23.1,13.1,55,29,14,29.76,29.67,23,4,24,0.00
2013-5-27,64.0,55.4,43.7,28.0,17.7,7.9,53,24,14,29.68,29.55,29,-1,34,0.00
2013-5-28,59.5,51.3,37.6,40.5,28.1,20.3,67,42,22,29.62,29.45,22,-3,25,0.00
2013-5-29,51.3,41.2,35.1,36.9,31.1,24.6,89,68,36,29.63,29.39,30,-9,34,0.01
2013-5-30,48.6,41.4,36.9,27.5,23.6,18.3,65,50,32,29.82,29.55,47,4,55,0.00
2013-5-31,49.8,43.7,35.8,22.3,15.4,8.2,52,33,21,30.00,29.73,46,-1,49,0.00
2013-6-1,54.9,44.1,35.1,35.2,28.8,16.9,78,56,34,30.15,29.98,23,4,30,0.00
2013-6-2,67.8,50.9,29.8,34.3,27.3,18.3,87,46,16,30.14,29.75,21,0,22,0.00
2013-6-3,67.6,56.2,40.8,33.3,25.5,20.1,58,33,18,29.75,29.61,32,-2,35,0.00
2013-6-4,58.6,47.7,34.0,46.2,36.9,20.8,97,68,34,30.02,29.72,22,-5,24,0.06
2013-6-5,51.8,42.1,36.0,43.2,38.8,33.4,97,89,61,30.09,29.99,9,-6,9,0.12
2013-6-6,60.3,50.8,36.0,40.6,33.6,26.8,90,53,35,30.08,29.94,13,0,13,0.00
2013-6-7,64.8,53.7,38.8,47.3,34.8,29.1,79,52,29,30.00,29.66,24,1,26,0.03
2013-6-8,62.8,55.8,43.3,46.2,38.2,29.5,76,53,30,29.80,29.53,25,0,33,0.00
2013-6-9,75.2,59.5,37.8,42.4,31.3,25.0,85,39,16,29.89,29.76,22,1,24,0.00
2013-6-10,78.8,65.8,48.7,36.0,29.7,19.4,59,28,11,29.76,29.62,25,-2,28,0.00
2013-6-11,75.2,66.1,51.4,37.8,21.9,6.4,46,20,8,29.62,29.54,32,8,39,0.00
2013-6-12,73.0,61.8,43.2,44.4,29.2,16.5,54,30,18,29.86,29.60,23,0,35,0.00
2013-6-13,75.7,60.9,45.3,46.8,34.9,23.7,68,42,15,29.85,29.65,40,-2,44,0.00
2013-6-14,71.4,59.6,48.0,41.2,32.6,16.7,73,39,16,29.73,29.65,22,4,26,0.00
2013-6-15,65.3,53.8,39.0,46.0,41.4,31.8,84,64,48,29.91,29.72,10,-1,11,0.00
2013-6-16,63.1,54.9,47.1,44.1,34.2,28.6,84,47,28,30.01,29.87,24,4,30,0.01
2013-6-17,64.6,54.7,41.5,46.8,38.2,26.4,81,56,31,29.99,29.87,16,-1,23,0.00
2013-6-18,66.6,55.7,44.1,48.7,41.1,35.2,81,60,34,29.94,29.70,11,-1,15,0.01
2013-6-19,75.4,60.9,40.8,43.2,25.0,4.6,92,36,7,29.76,29.55,20,-3,24,0.00
2013-6-20,69.4,59.4,46.4,35.4,24.2,11.1,46,26,17,29.70,29.56,21,4,25,0.00
2013-6-21,75.0,62.9,46.8,38.5,22.6,12.4,62,25,10,29.70,29.59,21,1,34,0.00
2013-6-22,68.2,56.8,41.7,42.1,31.0,19.6,79,41,17,29.72,29.56,23,0,26,0.00
2013-6-23,66.0,55.2,43.9,46.0,34.3,21.7,65,46,25,29.77,29.67,29,0,36,0.00
2013-6-24,71.4,59.1,41.2,41.7,24.7,14.7,73,33,12,29.74,29.61,28,6,31,0.00
2013-6-25,70.2,61.1,50.7,38.8,29.8,21.4,48,31,22,29.81,29.59,25,-5,29,0.00
2013-6-26,79.0,64.8,46.6,42.8,32.4,24.8,64,33,16,29.90,29.80,21,-6,24,0.00
2013-6-27,79.3,67.7,52.5,46.6,34.8,25.7,55,31,16,29.95,29.85,21,4,22,0.00
2013-6-28,79.2,65.4,50.5,53.1,42.4,29.8,90,48,19,29.94,29.80,23,-7,23,0.27
2013-6-29,69.4,56.8,47.5,56.5,48.7,43.3,93,76,44,29.99,29.87,9,-1,13,0.46
2013-6-30,67.3,55.5,48.6,52.9,48.7,42.6,92,79,45,30.02,29.91,10,2,12,0.11
2013-7-1,63.0,53.6,45.1,51.6,45.4,37.4,92,75,46,30.12,30.01,21,3,21,0.07
2013-7-2,64.6,54.4,43.5,51.3,44.3,38.3,91,70,45,30.09,29.97,16,-4,16,0.05
2013-7-3,70.5,55.9,43.9,47.1,41.6,31.5,87,61,37,29.98,29.75,15,1,31,0.15
2013-7-4,71.2,58.9,51.4,53.4,44.2,37.8,78,60,33,29.81,29.72,28,1,28,0.34
2013-7-5,71.4,59.2,49.5,53.8,47.0,41.4,86,65,39,29.73,29.64,22,-15,24,0.01
2013-7-6,71.1,60.9,49.8,49.5,45.7,41.4,85,59,35,29.78,29.65,22,4,22,0.03
2013-7-7,73.8,61.6,50.0,53.1,45.6,37.9,82,58,30,29.81,29.73,26,3,30,0.02
2013-7-8,73.8,64.2,55.9,45.1,41.2,33.4,63,44,24,29.86,29.75,36,6,37,0.01
2013-7-9,78.1,64.8,50.9,49.1,38.0,30.4,70,40,19,29.95,29.86,23,1,27,0.00
2013-7-10,75.0,62.5,49.1,53.1,44.0,38.1,71,52,32,29.94,29.77,13,-5,15,0.00
2013-7-11,80.1,68.0,53.2,50.9,43.0,35.8,74,44,21,29.85,29.59,28,4,41,0.00
2013-7-12,74.5,60.9,53.1,56.1,48.4,42.6,93,66,36,29.79,29.56,19,-1,20,0.32
2013-7-13,74.1,58.4,50.7,54.0,50.1,44.8,93,77,37,29.93,29.79,20,-8,24,0.15
2013-7-14,64.8,56.0,49.8,55.8,50.9,45.7,95,84,57,30.01,29.88,10,-9,10,1.20
2013-7-15,63.7,54.8,49.1,58.1,52.1,47.5,97,91,77,29.99,29.88,9,-6,10,1.30
2013-7-16,66.6,56.0,43.3,51.6,45.8,38.8,95,71,40,30.02,29.91,10,3,11,0.00
2013-7-17,73.2,60.4,47.1,53.4,48.2,41.5,88,66,45,30.02,29.88,12,2,14,0.00
2013-7-18,74.5,62.4,54.1,53.1,48.2,44.8,82,61,38,29.89,29.78,13,3,14,0.01
2013-7-19,65.8,58.6,51.3,53.8,49.7,40.8,89,73,50,29.94,29.83,15,-2,18,0.00
2013-7-20,72.9,59.8,47.8,55.2,45.2,37.8,91,61,31,29.86,29.71,13,-4,13,0.00
2013-7-21,77.4,63.7,48.0,48.2,36.6,21.2,92,40,14,29.76,29.66,18,0,24,0.00
2013-7-22,79.3,67.2,56.5,50.0,28.2,5.9,59,26,6,29.75,29.65,23,4,24,0.00
2013-7-23,75.9,64.4,50.0,52.9,34.2,13.6,88,38,10,29.85,29.69,14,-4,16,0.00
2013-7-24,68.4,58.0,49.3,55.4,48.7,39.9,92,72,43,29.94,29.80,26,-4,31,0.05
2013-7-25,64.8,54.2,48.7,51.4,47.2,43.5,95,78,48,30.09,29.83,18,-4,20,0.13
2013-7-26,66.0,54.4,43.3,55.4,46.5,40.6,92,76,47,30.13,29.99,11,-12,13,0.15
2013-7-27,71.1,56.9,46.8,53.4,45.4,37.2,95,69,32,30.01,29.78,18,-7,21,0.15
2013-7-28,62.4,53.3,47.5,54.3,49.9,46.0,96,89,60,29.81,29.70,9,-13,10,0.07
2013-7-29,64.4,55.7,48.6,50.2,45.6,42.4,91,70,48,30.00,29.78,13,-6,18,0.06
2013-7-30,70.3,58.4,47.1,45.9,43.8,40.6,88,61,36,30.09,29.97,24,4,24,0.00
2013-7-31,71.4,59.8,47.7,49.3,43.1,32.2,82,57,25,30.09,29.95,18,-4,20,0.00
2013-8-1,73.8,61.5,48.4,47.8,42.5,35.4,85,53,28,29.99,29.73,16,4,19,0.00
2013-8-2,75.4,65.0,55.9,50.0,42.0,32.9,67,45,22,29.75,29.66,28,1,28,0.00
2013-8-3,73.0,60.2,50.2,57.6,45.0,38.5,95,61,33,29.95,29.75,24,-7,26,0.38
2013-8-4,74.7,60.2,48.0,50.0,43.5,32.4,89,57,23,29.95,29.86,19,-9,22,0.05
2013-8-5,70.7,59.2,51.8,52.7,44.2,38.1,91,60,32,29.86,29.79,14,0,19,0.47
2013-8-6,72.3,60.9,52.9,45.1,39.4,32.7,71,46,26,29.85,29.78,26,1,26,0.00
2013-8-7,63.0,54.7,46.8,49.3,41.4,34.0,82,61,40,29.86,29.80,15,3,15,0.00
2013-8-8,63.1,52.2,42.4,51.6,42.3,34.2,81,69,51,30.03,29.84,15,-1,18,0.00
2013-8-9,61.0,50.3,42.3,49.6,42.7,36.7,90,76,53,30.11,29.97,14,-1,15,0.08
2013-8-10,70.3,55.7,42.1,50.4,40.1,30.7,89,59,25,30.12,29.97,16,-7,19,0.02
2013-8-11,62.8,54.0,46.8,50.2,42.8,36.1,90,67,41,30.04,29.96,11,-9,11,0.17
2013-8-12,63.0,53.3,45.7,48.4,43.5,37.8,93,71,46,30.10,29.99,12,3,14,0.40
2013-8-13,59.4,51.3,44.2,48.6,44.3,39.6,92,77,61,30.13,29.98,15,-18,15,0.64
2013-8-14,64.6,53.4,41.2,46.2,39.8,33.4,88,62,32,30.11,29.97,26,4,31,0.00
2013-8-15,71.1,59.1,45.9,41.7,34.9,23.9,68,42,18,30.04,29.92,15,1,24,0.00
2013-8-16,72.9,59.9,46.8,46.9,36.9,28.0,71,45,22,29.98,29.93,10,-8,11,0.00
2013-8-17,75.7,63.0,50.2,46.8,33.2,22.6,63,36,14,29.97,29.81,19,0,22,0.00
2013-8-18,76.3,64.2,54.1,52.2,38.6,31.3,70,40,20,29.88,29.79,20,4,20,0.01
2013-8-19,75.0,63.8,52.2,49.8,39.6,30.2,66,43,20,29.88,29.78,12,0,13,0.01
2013-8-20,78.1,66.3,56.7,45.3,37.1,28.6,53,36,17,29.81,29.72,21,-8,22,0.00
2013-8-21,72.3,62.3,52.0,55.0,44.4,38.3,84,55,32,29.87,29.75,12,-1,15,0.08
2013-8-22,66.7,55.9,47.7,56.7,49.0,44.4,91,78,54,29.99,29.87,14,2,15,0.15
2013-8-23,70.3,58.7,49.5,51.3,47.2,39.7,92,67,43,29.98,29.76,29,4,34,0.21
2013-8-24,68.2,55.7,45.9,52.7,46.3,38.7,94,73,37,29.96,29.80,23,0,27,0.21
2013-8-25,69.1,57.3,47.3,54.7,47.5,43.3,90,72,43,29.98,29.93,14,-4,16,0.09
2013-8-26,73.8,59.6,50.0,54.0,49.3,45.0,91,71,38,29.96,29.89,28,-3,33,0.11
2013-8-27,72.5,60.8,50.4,56.3,49.6,45.7,87,68,45,29.95,29.85,21,-1,21,0.11
2013-8-28,75.4,62.1,51.4,53.2,47.1,31.5,80,60,30,29.91,29.83,13,-4,20,0.00
2013-8-29,75.6,62.2,54.0,52.3,45.6,40.5,80,57,32,29.96,29.88,21,-7,21,0.05
2013-8-30,73.0,62.0,54.1,55.6,46.9,41.4,76,59,33,29.96,29.87,20,0,20,0.02
2013-8-31,72.7,60.0,50.7,51.4,45.5,40.8,87,61,34,29.91,29.81,15,-4,18,0.04
2013-9-1,51.6,49.7,46.9,47.3,45.5,44.1,93,86,79,29.95,29.91,7,-10,8,0.00